Aviation Digital Data Service (ADDS)

Output produced by TAFs form (1724 UTC 25 September 2016)
found at http://aviationweather.gov/adds/tafs/
 
KLVS 251125Z 2512/2612 02012G18KT P6SM SKC 
     FM251400 03015G25KT P6SM FEW050 
     FM252000 07012G20KT P6SM SCT050 
     FM260100 06008KT P6SM SCT050 
     FM260400 04007KT P6SM SCT040